createdAt,value
2018-12-31T14:37:12.751Z,12.83
2018-12-31T14:39:41.867Z,16.83
2018-12-31T14:42:10.973Z,15.90
2018-12-31T14:50:50.980Z,3.20
2018-12-31T14:53:20.209Z,3.47
2018-12-31T14:55:49.408Z,3.70
2018-12-31T14:58:18.731Z,4.00
2018-12-31T15:00:47.860Z,3.43
2018-12-31T15:03:17.117Z,4.10
2018-12-31T15:05:46.312Z,4.47
2018-12-31T15:08:15.662Z,3.73
2018-12-31T15:10:44.844Z,3.40
2018-12-31T15:13:14.081Z,3.40
2018-12-31T15:15:43.302Z,6.60
2018-12-31T15:18:12.033Z,4.93
2018-12-31T15:20:41.457Z,3.83
2018-12-31T15:23:10.596Z,3.83
2018-12-31T15:25:39.909Z,5.47
2018-12-31T15:28:09.099Z,4.60
2018-12-31T15:30:38.239Z,9.10
2018-12-31T15:33:08.461Z,5.63
2018-12-31T15:35:38.067Z,4.70
2018-12-31T15:38:07.433Z,6.07
2018-12-31T15:40:36.573Z,5.30
2018-12-31T15:43:07.748Z,6.27
2018-12-31T15:45:37.403Z,6.53
2018-12-31T15:48:08.020Z,6.23
2018-12-31T15:50:38.823Z,6.03
2018-12-31T15:53:09.661Z,6.63
2018-12-31T15:55:38.821Z,6.60
2018-12-31T15:58:10.184Z,5.67
2018-12-31T16:00:39.366Z,6.43
2018-12-31T16:03:09.698Z,6.77
2018-12-31T16:05:38.867Z,7.87
2018-12-31T16:08:08.426Z,7.67
2018-12-31T16:10:37.638Z,6.57
2018-12-31T16:13:11.410Z,6.17
2018-12-31T16:15:40.541Z,6.87
2018-12-31T16:18:10.084Z,7.43
2018-12-31T16:20:39.653Z,5.67
2018-12-31T16:23:10.272Z,5.57
2018-12-31T16:25:41.346Z,7.03
2018-12-31T16:28:10.417Z,8.47
2018-12-31T16:30:39.506Z,6.77
2018-12-31T16:33:09.611Z,6.73
2018-12-31T16:35:41.911Z,8.83
2018-12-31T16:38:10.706Z,8.43
2018-12-31T16:40:42.632Z,10.40
2018-12-31T16:43:14.964Z,10.60
2018-12-31T16:45:45.860Z,11.90
2018-12-31T16:48:15.094Z,13.17
2018-12-31T16:50:44.320Z,11.37
2018-12-31T16:53:13.968Z,10.20
2018-12-31T16:55:43.537Z,8.33
2018-12-31T16:58:13.332Z,7.53
2018-12-31T17:00:42.492Z,9.43
2018-12-31T17:03:11.649Z,11.03
2018-12-31T17:05:41.104Z,8.43
2018-12-31T17:08:10.409Z,8.63
2018-12-31T17:10:39.686Z,8.17
2018-12-31T17:13:08.904Z,6.77
2018-12-31T17:15:38.165Z,7.87
2018-12-31T17:18:13.529Z,7.67
2018-12-31T17:20:54.143Z,10.23
2018-12-31T17:23:23.068Z,10.13
2018-12-31T17:25:52.288Z,10.37
2018-12-31T17:28:22.104Z,16.13
2018-12-31T17:30:52.906Z,14.20
2018-12-31T17:33:24.541Z,8.17
2018-12-31T17:35:55.044Z,10.63
2018-12-31T17:38:24.269Z,9.23
2018-12-31T17:40:53.608Z,19.00
2018-12-31T17:43:22.741Z,13.10
2018-12-31T17:45:51.871Z,14.63
2018-12-31T17:48:21.019Z,15.00
2018-12-31T17:50:50.256Z,12.73
2018-12-31T17:53:19.544Z,13.37
2018-12-31T17:55:48.788Z,14.57
2018-12-31T17:58:18.972Z,13.10
2018-12-31T18:00:48.148Z,13.67
2018-12-31T18:03:17.340Z,13.33
2018-12-31T18:05:46.582Z,18.77
2018-12-31T18:08:15.928Z,25.07
2018-12-31T18:10:45.242Z,33.07
2018-12-31T18:13:14.442Z,58.20
2018-12-31T18:15:43.632Z,90.57
2018-12-31T18:18:13.317Z,80.10
2018-12-31T18:20:42.563Z,62.23
2018-12-31T18:23:11.793Z,85.67
2018-12-31T18:25:41.269Z,78.57
2018-12-31T18:28:10.584Z,54.70
2018-12-31T18:30:40.240Z,59.53
2018-12-31T18:33:09.441Z,48.27
2018-12-31T18:35:38.703Z,41.83
2018-12-31T18:38:07.937Z,47.43
2018-12-31T18:40:37.133Z,42.87
2018-12-31T18:43:06.662Z,37.53
2018-12-31T18:45:35.945Z,22.97
2018-12-31T18:48:05.102Z,35.03
2018-12-31T18:50:34.335Z,26.43
2018-12-31T18:53:03.505Z,30.50
2018-12-31T18:55:33.195Z,28.00
2018-12-31T18:58:02.375Z,27.67
2018-12-31T19:00:31.561Z,31.67
2018-12-31T19:03:00.762Z,28.60
2018-12-31T19:05:29.934Z,15.67
2018-12-31T19:07:59.466Z,17.33
2018-12-31T19:10:28.661Z,20.63
2018-12-31T19:12:57.820Z,20.73
2018-12-31T19:15:26.999Z,15.37
2018-12-31T19:17:56.175Z,22.07
2018-12-31T19:20:25.914Z,17.73
2018-12-31T19:22:55.179Z,19.27
2018-12-31T19:25:24.490Z,24.10
2018-12-31T19:27:54.118Z,21.20
2018-12-31T19:30:23.374Z,22.03
2018-12-31T19:32:52.883Z,24.13
2018-12-31T19:35:22.121Z,22.27
2018-12-31T19:37:51.390Z,30.73
2018-12-31T19:40:20.637Z,36.50
2018-12-31T19:42:49.800Z,36.73
2018-12-31T19:45:18.964Z,36.97
2018-12-31T19:47:48.131Z,37.83
2018-12-31T19:50:17.299Z,42.33
2018-12-31T19:52:46.508Z,36.87
2018-12-31T19:55:15.706Z,31.07
2018-12-31T19:57:45.077Z,31.83
2018-12-31T20:00:14.236Z,28.63
2018-12-31T20:02:43.483Z,24.20
2018-12-31T20:05:12.678Z,17.90
2018-12-31T20:07:41.974Z,22.90
2018-12-31T20:10:11.147Z,26.53
2018-12-31T20:12:40.338Z,24.57
2018-12-31T20:15:09.712Z,17.77
2018-12-31T20:17:38.959Z,16.53
2018-12-31T20:20:08.279Z,15.13
2018-12-31T20:22:37.489Z,15.13
2018-12-31T20:25:06.674Z,14.03
2018-12-31T20:27:35.842Z,13.80
2018-12-31T20:30:05.315Z,14.13
2018-12-31T20:32:34.489Z,13.43
2018-12-31T20:35:03.820Z,13.47
2018-12-31T20:37:33.298Z,11.90
2018-12-31T20:40:02.396Z,18.33
2018-12-31T20:42:31.509Z,17.30
2018-12-31T20:45:00.594Z,14.70
2018-12-31T20:47:29.698Z,12.90
2018-12-31T20:49:58.783Z,14.53
2018-12-31T20:52:27.902Z,16.57
2018-12-31T20:54:56.992Z,16.63
2018-12-31T20:57:26.087Z,19.13
2018-12-31T20:59:55.180Z,25.83
2018-12-31T21:02:24.292Z,28.03
2018-12-31T21:04:53.659Z,27.70
2018-12-31T21:07:22.762Z,28.50
2018-12-31T21:09:51.875Z,34.23
2018-12-31T21:12:20.976Z,34.03
2018-12-31T21:14:50.070Z,35.83
2018-12-31T21:17:19.563Z,43.97
2018-12-31T21:19:48.654Z,31.30
2018-12-31T21:22:17.759Z,56.07
2018-12-31T21:24:46.846Z,34.50
2018-12-31T21:27:15.956Z,30.60
2018-12-31T21:29:45.415Z,33.93
2018-12-31T21:32:14.523Z,34.07
2018-12-31T21:34:43.616Z,31.93
2018-12-31T21:37:12.718Z,38.00
2018-12-31T21:39:41.815Z,38.20
2018-12-31T21:42:10.920Z,49.23
2018-12-31T21:44:40.007Z,41.33
2018-12-31T21:47:09.097Z,42.60
2018-12-31T21:49:38.187Z,55.00
2018-12-31T21:52:07.295Z,47.07
2018-12-31T21:54:36.392Z,40.07
2018-12-31T21:57:05.477Z,37.40
2018-12-31T21:59:34.590Z,42.10
2018-12-31T22:02:03.674Z,43.77
2018-12-31T22:04:32.779Z,28.77
2018-12-31T22:07:01.876Z,41.87
2018-12-31T22:09:31.143Z,43.70
2018-12-31T22:12:00.243Z,37.90
2018-12-31T22:14:29.342Z,31.37
2018-12-31T22:16:58.428Z,38.47
2018-12-31T22:19:27.534Z,124.50
2018-12-31T22:21:56.922Z,62.17
2018-12-31T22:24:26.028Z,57.07
2018-12-31T22:26:55.124Z,53.30
2018-12-31T22:29:24.224Z,56.70
2018-12-31T22:31:53.322Z,48.53
2018-12-31T22:34:22.700Z,42.87
2018-12-31T22:36:51.791Z,44.60
2018-12-31T22:39:20.895Z,34.90
2018-12-31T22:41:49.985Z,38.97
2018-12-31T22:44:19.087Z,29.37
2018-12-31T22:46:48.566Z,34.70
2018-12-31T22:49:17.659Z,28.97
2018-12-31T22:51:46.752Z,33.70
2018-12-31T22:54:15.851Z,31.90
2018-12-31T22:56:44.950Z,35.47
2018-12-31T22:59:14.644Z,24.40
2018-12-31T23:01:43.735Z,25.83
2018-12-31T23:04:12.843Z,29.60
2018-12-31T23:06:41.942Z,35.17
2018-12-31T23:09:11.317Z,75.30
2018-12-31T23:11:40.911Z,835.60
2018-12-31T23:14:10.018Z,669.33
2018-12-31T23:16:39.115Z,756.50
2018-12-31T23:19:08.229Z,456.07
2018-12-31T23:21:37.333Z,393.83
2018-12-31T23:24:06.828Z,266.67
2018-12-31T23:26:35.937Z,245.47
2018-12-31T23:29:05.056Z,340.03
2018-12-31T23:31:32.634Z,582.17
2018-12-31T23:33:59.209Z,283.23
2018-12-31T23:36:25.746Z,374.50
2018-12-31T23:38:52.755Z,265.27
2018-12-31T23:41:19.307Z,237.53
2018-12-31T23:43:45.961Z,244.13
2018-12-31T23:46:12.502Z,295.30
2018-12-31T23:48:39.049Z,255.53
2018-12-31T23:51:05.595Z,333.10
2018-12-31T23:53:32.441Z,384.63
2018-12-31T23:55:58.983Z,458.50
2018-12-31T23:58:25.528Z,381.90
